createdAt,value
2023-02-08T00:01:06.123Z,29.85
2023-02-08T00:03:32.987Z,28.83
2023-02-08T00:05:59.864Z,27.33
2023-02-08T00:08:26.746Z,31.00
2023-02-08T00:10:53.545Z,26.00
2023-02-08T00:13:21.327Z,26.17
2023-02-08T00:15:48.399Z,23.50
2023-02-08T00:18:15.257Z,24.30
2023-02-08T00:20:44.266Z,25.30
2023-02-08T00:23:13.213Z,28.95
2023-02-08T00:25:41.651Z,29.45
2023-02-08T00:28:15.296Z,29.20
2023-02-08T00:30:43.681Z,33.53
2023-02-08T00:33:11.712Z,31.77
2023-02-08T00:35:38.799Z,31.40
2023-02-08T00:38:05.610Z,30.25
2023-02-08T00:40:32.518Z,27.60
2023-02-08T00:42:59.352Z,24.15
2023-02-08T00:45:26.151Z,25.70
2023-02-08T00:47:53.034Z,27.70
2023-02-08T00:50:21.241Z,24.13
2023-02-08T00:52:48.093Z,24.98
2023-02-08T00:55:14.826Z,27.17
2023-02-08T00:57:41.675Z,23.48
2023-02-08T01:00:11.546Z,25.33
2023-02-08T01:02:39.401Z,25.05
2023-02-08T01:05:07.249Z,27.45
2023-02-08T01:07:37.784Z,26.05
2023-02-08T01:10:06.439Z,22.40
2023-02-08T01:12:33.465Z,23.10
2023-02-08T01:15:00.316Z,24.00
2023-02-08T01:17:27.227Z,24.42
2023-02-08T01:19:54.063Z,22.00
2023-02-08T01:22:20.978Z,23.58
2023-02-08T01:24:47.918Z,26.02
2023-02-08T01:27:14.672Z,23.17
2023-02-08T01:29:41.421Z,24.33
2023-02-08T01:32:08.294Z,26.42
2023-02-08T01:34:35.170Z,21.65
2023-02-08T01:37:01.962Z,24.30
2023-02-08T01:39:28.730Z,23.23
2023-02-08T01:41:55.489Z,22.48
2023-02-08T01:45:15.537Z,23.83
2023-02-08T01:47:47.051Z,24.35
2023-02-08T01:50:17.600Z,24.33
2023-02-08T01:52:45.745Z,23.52
2023-02-08T01:55:24.156Z,25.13
2023-02-08T01:57:56.629Z,21.88
2023-02-08T02:00:24.447Z,21.65
2023-02-08T02:02:55.264Z,21.92
2023-02-08T02:05:43.013Z,22.45
2023-02-08T02:08:12.075Z,24.08
2023-02-08T02:10:41.650Z,24.48
2023-02-08T02:13:18.483Z,19.38
2023-02-08T02:15:46.188Z,19.83
2023-02-08T02:18:23.589Z,24.88
2023-02-08T02:21:21.719Z,22.35
2023-02-08T02:24:22.404Z,21.20
2023-02-08T02:27:37.482Z,22.40
2023-02-08T02:30:25.365Z,20.63
2023-02-08T02:33:34.098Z,20.50
2023-02-08T02:36:08.069Z,21.88
2023-02-08T02:38:41.410Z,24.10
2023-02-08T02:41:56.421Z,21.10
2023-02-08T02:44:46.094Z,22.20
2023-02-08T02:47:23.013Z,19.48
2023-02-08T02:50:01.379Z,22.27
2023-02-08T02:52:51.457Z,19.73
2023-02-08T02:55:23.700Z,19.77
2023-02-08T02:57:54.224Z,21.27
2023-02-08T03:00:28.979Z,21.10
2023-02-08T03:02:56.072Z,22.70
2023-02-08T03:05:23.243Z,21.50
2023-02-08T03:08:41.060Z,21.73
2023-02-08T03:11:26.668Z,18.42
2023-02-08T03:14:34.753Z,22.30
2023-02-08T03:17:32.640Z,19.13
2023-02-08T03:20:08.522Z,22.27
2023-02-08T03:22:59.858Z,18.42
2023-02-08T03:25:54.162Z,22.80
2023-02-08T03:28:44.039Z,19.25
2023-02-08T03:31:30.281Z,20.58
2023-02-08T03:34:14.097Z,20.85
2023-02-08T03:36:53.479Z,21.00
2023-02-08T03:39:27.357Z,21.65
2023-02-08T03:42:01.542Z,20.00
2023-02-08T03:44:45.708Z,19.52
2023-02-08T03:47:32.619Z,20.95
2023-02-08T03:50:06.434Z,20.15
2023-02-08T03:52:35.690Z,21.33
2023-02-08T03:55:12.052Z,20.25
2023-02-08T03:57:52.946Z,21.45
2023-02-08T04:00:21.808Z,22.48
2023-02-08T04:03:10.769Z,19.98
2023-02-08T04:05:37.792Z,22.83
2023-02-08T04:08:04.835Z,20.70
2023-02-08T04:10:31.800Z,19.08
2023-02-08T04:12:58.829Z,18.52
2023-02-08T04:15:27.320Z,19.67
2023-02-08T04:17:54.760Z,18.88
2023-02-08T04:20:21.724Z,19.25
2023-02-08T04:22:49.278Z,21.30
2023-02-08T04:25:16.193Z,22.05
2023-02-08T04:27:43.176Z,21.40
2023-02-08T04:30:10.930Z,18.48
2023-02-08T04:32:37.731Z,18.80
2023-02-08T04:35:05.368Z,20.23
2023-02-08T04:37:32.527Z,19.83
2023-02-08T04:39:59.331Z,19.98
2023-02-08T04:42:26.380Z,19.20
2023-02-08T04:44:53.218Z,17.83
2023-02-08T04:47:20.004Z,19.42
2023-02-08T04:49:46.785Z,19.23
2023-02-08T04:52:13.621Z,20.48
2023-02-08T04:54:40.985Z,20.05
2023-02-08T04:57:12.224Z,18.02
2023-02-08T04:59:39.044Z,20.27
2023-02-08T05:02:05.932Z,18.55
2023-02-08T05:04:32.991Z,18.73
2023-02-08T05:06:59.863Z,20.50
2023-02-08T05:09:26.686Z,17.70
2023-02-08T05:11:53.503Z,19.27
2023-02-08T05:14:20.327Z,18.33
2023-02-08T05:16:47.244Z,20.95
2023-02-08T05:19:14.234Z,19.05
2023-02-08T05:21:41.024Z,17.83
2023-02-08T05:24:08.921Z,18.60
2023-02-08T05:26:35.752Z,19.77
2023-02-08T05:29:02.665Z,19.02
2023-02-08T05:31:29.496Z,19.75
2023-02-08T05:33:56.472Z,19.10
2023-02-08T05:36:24.478Z,18.13
2023-02-08T05:38:51.289Z,18.65
2023-02-08T05:41:18.096Z,18.92
2023-02-08T05:43:45.888Z,20.38
2023-02-08T05:46:13.182Z,21.92
2023-02-08T05:48:40.388Z,19.38
2023-02-08T05:51:07.597Z,18.23
2023-02-08T05:53:34.693Z,18.98
2023-02-08T05:56:01.450Z,16.80
2023-02-08T05:58:28.383Z,20.20
2023-02-08T06:00:55.248Z,17.65
2023-02-08T06:03:22.559Z,19.73
2023-02-08T06:05:49.550Z,20.02
2023-02-08T06:08:16.360Z,19.80
2023-02-08T06:10:43.268Z,18.90
2023-02-08T06:13:10.229Z,19.48
2023-02-08T06:15:37.116Z,18.67
2023-02-08T06:18:03.991Z,20.80
2023-02-08T06:20:30.771Z,19.83
2023-02-08T06:22:57.641Z,20.77
2023-02-08T06:25:24.682Z,19.30
2023-02-08T06:27:51.478Z,20.02
2023-02-08T06:30:18.668Z,18.35
2023-02-08T06:32:45.649Z,21.15
2023-02-08T06:35:13.118Z,20.80
2023-02-08T06:37:40.130Z,20.15
2023-02-08T06:40:08.138Z,20.15
2023-02-08T06:42:35.017Z,21.58
2023-02-08T06:45:01.905Z,20.25
2023-02-08T06:47:29.035Z,18.17
2023-02-08T06:49:56.181Z,19.73
2023-02-08T06:52:23.231Z,20.83
2023-02-08T06:54:49.998Z,21.17
2023-02-08T06:57:17.075Z,16.83
2023-02-08T06:59:43.954Z,21.05
2023-02-08T07:02:15.609Z,18.65
2023-02-08T07:04:43.898Z,17.65
2023-02-08T07:07:12.757Z,21.20
2023-02-08T07:09:39.997Z,20.10
2023-02-08T07:12:08.873Z,21.83
2023-02-08T07:14:40.018Z,21.88
2023-02-08T07:17:07.298Z,20.23
2023-02-08T07:19:34.421Z,19.92
2023-02-08T07:22:07.860Z,20.58
2023-02-08T07:24:37.652Z,18.95
2023-02-08T07:27:06.517Z,23.23
2023-02-08T07:29:34.629Z,19.75
2023-02-08T07:32:03.718Z,20.75
2023-02-08T07:34:36.131Z,19.23
2023-02-08T07:37:03.632Z,22.52
2023-02-08T07:39:31.281Z,20.08
2023-02-08T07:41:59.308Z,19.80
2023-02-08T07:44:30.186Z,21.25
2023-02-08T07:46:56.980Z,20.02
2023-02-08T07:49:24.258Z,20.13
2023-02-08T07:51:51.271Z,21.80
2023-02-08T07:54:18.132Z,21.55
2023-02-08T07:56:45.117Z,21.63
2023-02-08T07:59:12.073Z,20.75
2023-02-08T08:01:38.975Z,21.63
2023-02-08T08:04:05.891Z,18.23
2023-02-08T08:06:32.842Z,20.58
2023-02-08T08:08:59.718Z,18.83
2023-02-08T08:11:26.588Z,20.48
2023-02-08T08:13:53.492Z,21.88
2023-02-08T08:16:20.901Z,19.13
2023-02-08T08:18:48.260Z,20.92
2023-02-08T08:21:16.547Z,18.52
2023-02-08T08:23:44.000Z,21.80
2023-02-08T08:26:18.497Z,20.60
2023-02-08T08:28:46.780Z,20.13
2023-02-08T08:31:18.518Z,24.83
2023-02-08T08:33:46.133Z,21.05
2023-02-08T08:36:12.977Z,18.52
2023-02-08T08:38:40.977Z,23.25
2023-02-08T08:41:14.785Z,20.50
2023-02-08T08:43:41.973Z,20.52
2023-02-08T08:46:09.764Z,21.45
2023-02-08T08:48:38.674Z,20.58
2023-02-08T08:51:06.806Z,20.10
2023-02-08T08:53:34.500Z,21.95
2023-02-08T08:56:01.511Z,19.25
2023-02-08T08:58:28.631Z,18.48
2023-02-08T09:01:00.059Z,19.08
2023-02-08T09:03:28.379Z,22.77
2023-02-08T09:05:55.625Z,20.23
2023-02-08T09:08:22.754Z,18.73
2023-02-08T09:10:49.601Z,19.30
2023-02-08T09:13:19.572Z,21.08
2023-02-08T09:15:48.240Z,19.10
2023-02-08T09:18:15.475Z,16.50
2023-02-08T09:20:42.766Z,18.25
2023-02-08T09:23:09.746Z,21.80
2023-02-08T09:25:37.710Z,20.23
2023-02-08T09:28:05.026Z,20.98
2023-02-08T09:30:32.884Z,20.10
2023-02-08T09:32:59.928Z,18.15
2023-02-08T09:35:26.862Z,21.83
2023-02-08T09:37:57.713Z,19.73
2023-02-08T09:40:30.297Z,18.65
2023-02-08T09:43:31.534Z,17.48
2023-02-08T09:46:11.567Z,19.95
2023-02-08T09:48:41.024Z,16.60
2023-02-08T09:51:35.580Z,16.73
2023-02-08T09:54:22.755Z,19.10
2023-02-08T09:56:50.544Z,17.63
2023-02-08T09:59:27.457Z,18.40
2023-02-08T10:02:04.536Z,15.85
2023-02-08T10:04:59.360Z,16.85
2023-02-08T10:07:28.851Z,15.25
2023-02-08T10:10:01.172Z,16.15
2023-02-08T10:13:01.684Z,17.15
2023-02-08T10:15:34.613Z,17.08
2023-02-08T10:18:37.055Z,16.13
2023-02-08T10:21:34.025Z,16.77
2023-02-08T10:24:20.663Z,15.63
2023-02-08T10:27:28.724Z,15.32
2023-02-08T10:30:21.384Z,14.68
2023-02-08T10:33:10.062Z,18.25
2023-02-08T10:35:45.097Z,15.18
2023-02-08T10:38:37.144Z,17.42
2023-02-08T10:41:20.181Z,16.83
2023-02-08T10:44:19.457Z,16.20
2023-02-08T10:47:27.145Z,13.10
2023-02-08T10:50:07.714Z,18.35
2023-02-08T10:52:34.798Z,13.18
2023-02-08T10:55:02.230Z,14.20
2023-02-08T10:57:35.529Z,16.00
2023-02-08T11:00:07.793Z,14.35
2023-02-08T11:02:41.852Z,13.77
2023-02-08T11:05:31.466Z,12.40
2023-02-08T11:08:16.026Z,16.88
2023-02-08T11:10:56.621Z,11.13
2023-02-08T11:13:31.428Z,14.13
2023-02-08T11:16:01.790Z,11.88
2023-02-08T11:18:40.911Z,11.30
2023-02-08T11:21:24.838Z,14.30
2023-02-08T11:23:55.413Z,14.38
2023-02-08T11:26:27.119Z,14.60
2023-02-08T11:29:21.271Z,17.10
2023-02-08T11:32:16.998Z,12.43
2023-02-08T11:34:44.116Z,12.68
2023-02-08T11:37:17.617Z,12.95
2023-02-08T11:39:55.196Z,15.52
2023-02-08T11:42:41.807Z,14.82
2023-02-08T11:45:20.800Z,13.52
2023-02-08T11:47:49.521Z,12.98
2023-02-08T11:50:35.091Z,11.38
2023-02-08T11:53:39.677Z,11.57
2023-02-08T11:56:21.117Z,12.25
2023-02-08T11:59:14.917Z,11.40
2023-02-08T12:01:42.546Z,11.82
2023-02-08T12:04:16.753Z,11.88
2023-02-08T12:07:31.683Z,12.80
2023-02-08T12:10:24.278Z,15.48
2023-02-08T12:13:37.350Z,11.88
2023-02-08T12:16:42.752Z,13.35
2023-02-08T12:19:27.411Z,12.63
2023-02-08T12:22:10.749Z,12.65
2023-02-08T12:25:06.938Z,11.55
2023-02-08T12:27:57.657Z,13.65
2023-02-08T12:30:35.378Z,11.35
2023-02-08T12:33:46.987Z,13.23
2023-02-08T12:36:39.604Z,12.55
2023-02-08T12:39:57.863Z,11.70
2023-02-08T12:42:53.797Z,16.60
2023-02-08T12:45:47.886Z,14.80
2023-02-08T12:48:47.574Z,13.00
2023-02-08T12:51:56.026Z,11.85
2023-02-08T12:54:38.167Z,11.60
2023-02-08T12:57:06.580Z,13.38
2023-02-08T12:59:49.670Z,12.00
2023-02-08T13:02:44.139Z,15.05
2023-02-08T13:05:21.859Z,11.85
2023-02-08T13:08:22.373Z,13.15
2023-02-08T13:11:03.497Z,12.45
2023-02-08T13:13:44.284Z,11.68
2023-02-08T13:16:21.892Z,11.40
2023-02-08T13:19:24.667Z,11.55
2023-02-08T13:21:54.613Z,9.73
2023-02-08T13:24:43.666Z,9.27
2023-02-08T13:27:22.466Z,9.75
2023-02-08T13:29:52.531Z,11.82
2023-02-08T13:32:30.074Z,11.40
2023-02-08T13:35:05.597Z,9.40
2023-02-08T13:37:35.578Z,12.00
2023-02-08T13:40:28.340Z,11.63
2023-02-08T13:43:35.718Z,9.23
2023-02-08T13:46:04.555Z,10.07
2023-02-08T13:49:04.067Z,11.50
2023-02-08T13:51:33.591Z,10.00
2023-02-08T13:54:00.721Z,8.75
2023-02-08T13:56:50.557Z,13.38
2023-02-08T13:59:35.941Z,10.48
2023-02-08T14:02:20.176Z,10.95
2023-02-08T14:04:54.348Z,11.07
2023-02-08T14:07:46.363Z,12.73
2023-02-08T14:10:37.327Z,11.25
2023-02-08T14:13:28.489Z,9.80
2023-02-08T14:16:33.688Z,9.73
2023-02-08T14:19:21.485Z,10.27
2023-02-08T14:22:11.378Z,11.27
2023-02-08T14:25:00.986Z,10.30
2023-02-08T14:27:42.315Z,10.18
2023-02-08T14:30:26.670Z,10.63
2023-02-08T14:33:08.360Z,10.50
2023-02-08T14:35:42.306Z,12.25
2023-02-08T14:38:47.554Z,12.77
2023-02-08T14:41:43.598Z,10.25
2023-02-08T14:44:38.665Z,10.48
2023-02-08T14:47:26.960Z,9.43
2023-02-08T14:50:21.828Z,11.73
2023-02-08T14:53:07.696Z,11.45
2023-02-08T14:55:52.296Z,12.13
2023-02-08T14:58:36.018Z,11.15
2023-02-08T15:01:13.639Z,11.73
2023-02-08T15:03:42.740Z,11.02
2023-02-08T15:06:37.412Z,11.75
2023-02-08T15:09:12.825Z,10.48
2023-02-08T15:11:40.672Z,10.10
2023-02-08T15:14:16.647Z,12.75
2023-02-08T15:16:45.226Z,10.93
2023-02-08T15:19:43.060Z,9.98
2023-02-08T15:22:25.691Z,11.52
2023-02-08T15:25:01.759Z,9.68
2023-02-08T15:27:34.163Z,11.70
2023-02-08T15:30:01.894Z,11.80
2023-02-08T15:32:30.438Z,12.07
2023-02-08T15:35:04.091Z,10.38
2023-02-08T15:37:35.008Z,11.35
2023-02-08T15:40:03.185Z,10.57
2023-02-08T15:42:34.018Z,13.02
2023-02-08T15:45:02.646Z,11.32
2023-02-08T15:47:37.802Z,9.45
2023-02-08T15:50:16.346Z,10.25
2023-02-08T15:52:44.134Z,10.88
2023-02-08T15:55:18.261Z,9.95
2023-02-08T15:57:54.331Z,10.32
2023-02-08T16:00:35.692Z,10.82
2023-02-08T16:03:19.721Z,9.93
2023-02-08T16:05:54.001Z,8.35
2023-02-08T16:08:43.730Z,9.30
2023-02-08T16:11:23.205Z,7.63
2023-02-08T16:13:54.547Z,6.85
2023-02-08T16:16:48.040Z,18.92
2023-02-08T16:19:22.254Z,13.18
2023-02-08T16:21:49.938Z,12.52
2023-02-08T16:24:16.678Z,8.93
2023-02-08T16:27:07.517Z,9.20
2023-02-08T16:29:40.047Z,8.82
2023-02-08T16:32:13.258Z,9.23
2023-02-08T16:34:40.954Z,8.23
2023-02-08T16:37:24.256Z,6.70
2023-02-08T16:39:51.118Z,6.05
2023-02-08T16:42:26.111Z,7.80
2023-02-08T16:45:09.130Z,6.70
2023-02-08T16:47:45.071Z,7.40
2023-02-08T16:50:25.771Z,10.10
2023-02-08T16:53:02.164Z,6.75
2023-02-08T16:55:33.255Z,7.93
2023-02-08T16:58:00.422Z,7.68
2023-02-08T17:00:34.838Z,9.15
2023-02-08T17:03:02.113Z,8.65
2023-02-08T17:05:35.329Z,8.77
2023-02-08T17:08:07.886Z,8.98
2023-02-08T17:10:36.805Z,9.15
2023-02-08T17:13:19.083Z,9.43
2023-02-08T17:15:51.051Z,8.75
2023-02-08T17:18:18.067Z,9.88
2023-02-08T17:20:45.562Z,10.80
2023-02-08T17:23:15.657Z,11.27
2023-02-08T17:25:43.594Z,10.57
2023-02-08T17:28:21.098Z,13.93
2023-02-08T17:30:49.631Z,12.90
2023-02-08T17:33:19.710Z,16.15
2023-02-08T17:35:50.647Z,14.27
2023-02-08T17:38:19.853Z,14.43
2023-02-08T17:40:47.276Z,10.90
2023-02-08T17:43:14.477Z,11.90
2023-02-08T17:45:44.584Z,9.98
2023-02-08T17:48:15.390Z,11.88
2023-02-08T17:50:47.704Z,10.30
2023-02-08T17:53:15.429Z,10.20
2023-02-08T17:55:44.160Z,11.63
2023-02-08T17:58:12.753Z,11.98
2023-02-08T18:00:40.241Z,11.75
2023-02-08T18:03:07.229Z,12.18
2023-02-08T18:05:34.144Z,12.88
2023-02-08T18:08:00.993Z,12.10
2023-02-08T18:10:28.347Z,9.77
2023-02-08T18:12:55.540Z,9.82
2023-02-08T18:15:23.966Z,9.43
2023-02-08T18:17:50.856Z,10.98
2023-02-08T18:20:18.821Z,10.27
2023-02-08T18:22:46.116Z,11.48
2023-02-08T18:25:16.007Z,12.00
2023-02-08T18:27:43.101Z,9.85
2023-02-08T18:30:12.333Z,11.50
2023-02-08T18:32:39.793Z,9.65
2023-02-08T18:35:08.661Z,11.00
2023-02-08T18:37:37.495Z,10.23
2023-02-08T18:40:06.922Z,12.57
2023-02-08T18:42:35.938Z,11.02
2023-02-08T18:45:05.098Z,10.90
2023-02-08T18:47:31.939Z,11.73
2023-02-08T18:49:58.744Z,10.65
2023-02-08T18:52:25.935Z,8.93
2023-02-08T18:54:52.854Z,12.23
2023-02-08T18:57:20.050Z,10.35
2023-02-08T18:59:46.996Z,14.18
2023-02-08T19:02:21.237Z,8.27
2023-02-08T19:04:49.238Z,9.32
2023-02-08T19:07:16.218Z,12.52
2023-02-08T19:09:43.977Z,12.93
2023-02-08T19:12:15.187Z,11.00
2023-02-08T19:14:43.599Z,8.50
2023-02-08T19:17:12.308Z,9.70
2023-02-08T19:19:40.410Z,12.52
2023-02-08T19:22:07.450Z,11.65
2023-02-08T19:24:34.325Z,10.40
2023-02-08T19:27:01.512Z,13.05
2023-02-08T19:29:30.458Z,10.20
2023-02-08T19:31:58.423Z,12.02
2023-02-08T19:34:25.846Z,15.88
2023-02-08T19:36:54.567Z,11.73
2023-02-08T19:39:26.683Z,12.48
2023-02-08T19:41:54.563Z,13.65
2023-02-08T19:44:22.574Z,12.18
2023-02-08T19:46:54.823Z,11.30
2023-02-08T19:49:25.582Z,12.02
2023-02-08T19:51:52.842Z,11.00
2023-02-08T19:54:20.218Z,11.23
2023-02-08T19:56:50.225Z,11.13
2023-02-08T19:59:27.312Z,11.73
2023-02-08T20:01:55.160Z,9.90
2023-02-08T20:04:23.356Z,12.13
2023-02-08T20:06:53.079Z,13.80
2023-02-08T20:09:20.344Z,14.57
2023-02-08T20:11:57.971Z,19.42
2023-02-08T20:14:32.757Z,11.63
2023-02-08T20:17:01.602Z,11.95
2023-02-08T20:19:29.175Z,10.50
2023-02-08T20:21:56.055Z,10.68
2023-02-08T20:24:22.894Z,11.07
2023-02-08T20:26:49.966Z,12.93
2023-02-08T20:29:17.769Z,11.38
2023-02-08T20:31:47.920Z,13.85
2023-02-08T20:34:16.983Z,13.10
2023-02-08T20:36:49.705Z,13.38
2023-02-08T20:39:21.628Z,12.55
2023-02-08T20:41:48.602Z,13.15
2023-02-08T20:44:18.602Z,13.77
2023-02-08T20:46:46.596Z,13.88
2023-02-08T20:49:15.215Z,13.23
2023-02-08T20:51:43.192Z,12.60
2023-02-08T20:54:11.010Z,13.20
2023-02-08T20:56:38.822Z,13.60
2023-02-08T20:59:10.125Z,12.70
2023-02-08T21:01:37.345Z,14.93
2023-02-08T21:04:05.438Z,16.48
2023-02-08T21:06:36.101Z,20.67
2023-02-08T21:09:15.917Z,23.38
2023-02-08T21:11:44.869Z,18.13
2023-02-08T21:14:18.377Z,14.90
2023-02-08T21:16:48.253Z,15.25
2023-02-08T21:19:15.893Z,15.23
2023-02-08T21:21:43.464Z,15.40
2023-02-08T21:24:11.209Z,16.90
2023-02-08T21:26:38.520Z,15.75
2023-02-08T21:29:06.307Z,14.65
2023-02-08T21:31:36.462Z,13.77
2023-02-08T21:34:04.621Z,12.90
2023-02-08T21:36:32.146Z,12.13
2023-02-08T21:38:59.266Z,13.32
2023-02-08T21:41:30.436Z,11.00
2023-02-08T21:44:00.676Z,11.05
2023-02-08T21:46:28.442Z,11.70
2023-02-08T21:49:16.360Z,13.30
2023-02-08T21:52:04.525Z,11.15
2023-02-08T21:54:52.135Z,15.70
2023-02-08T21:57:28.616Z,14.00
2023-02-08T22:00:01.367Z,15.63
2023-02-08T22:02:30.127Z,11.85
2023-02-08T22:05:00.242Z,11.68
2023-02-08T22:07:29.014Z,11.98
2023-02-08T22:09:56.592Z,11.88
2023-02-08T22:12:23.703Z,8.90
2023-02-08T22:14:51.148Z,10.23
2023-02-08T22:17:18.599Z,10.88
2023-02-08T22:19:45.760Z,9.50
2023-02-08T22:22:12.681Z,12.95
2023-02-08T22:24:39.593Z,13.57
2023-02-08T22:27:06.492Z,12.57
2023-02-08T22:29:33.354Z,16.35
2023-02-08T22:32:01.190Z,16.77
2023-02-08T22:34:28.392Z,13.75
2023-02-08T22:36:55.222Z,12.23
2023-02-08T22:39:22.260Z,11.30
2023-02-08T22:41:49.213Z,13.40
2023-02-08T22:44:16.151Z,13.30
2023-02-08T22:46:43.084Z,11.60
2023-02-08T22:49:09.904Z,11.57
2023-02-08T22:51:37.807Z,14.18
2023-02-08T22:54:04.824Z,12.40
2023-02-08T22:56:31.717Z,13.45
2023-02-08T22:59:00.270Z,11.88
2023-02-08T23:01:28.640Z,11.95
2023-02-08T23:03:55.551Z,10.40
2023-02-08T23:06:22.319Z,11.40
2023-02-08T23:08:49.215Z,12.32
2023-02-08T23:11:16.642Z,12.57
2023-02-08T23:13:43.489Z,14.07
2023-02-08T23:16:16.586Z,12.30
2023-02-08T23:18:44.095Z,11.80
2023-02-08T23:21:16.534Z,11.30
2023-02-08T23:23:45.691Z,14.98
2023-02-08T23:26:17.871Z,12.05
2023-02-08T23:28:45.393Z,12.90
2023-02-08T23:31:14.499Z,13.20
2023-02-08T23:33:41.721Z,14.88
2023-02-08T23:36:13.028Z,12.23
2023-02-08T23:38:40.709Z,13.02
2023-02-08T23:41:17.940Z,13.30
2023-02-08T23:43:45.098Z,14.85
2023-02-08T23:46:18.832Z,11.80
2023-02-08T23:48:47.663Z,14.20
2023-02-08T23:51:18.281Z,14.20
2023-02-08T23:53:45.934Z,12.80
2023-02-08T23:56:19.934Z,14.40
2023-02-08T23:58:50.089Z,16.10
